ボードー の空港の天気 - METARとTAF

Bodo Vi ( ENBO / BOO ) - ノルウェー ヌールラン県ボードー
飛行場実況気象(Metar)
観測時間08/14 21:50 CEST (08/14 19:50 UTC)
風向・風速南西 8m/s
視程10km以上
天気現象弱い雨
少しの雲 雲底高度 460m
全天の4割程度の雲 雲底高度 910m
全天の8割程度の雲 雲底高度 1680m
気温13℃
湿度88%
気圧1008hPa
METARENBO 141950Z 23016KT 9999 -RA FEW015 SCT030 BKN055 13/11 Q1008 TEMPO 24020G30KT
過去の天気等 Google飛行場航空写真 Wunderground天気予報

過去48時間のMETAR

飛行場予報(TAF)
発表時間: -
14日21時 CEST ~ 15日11時 CEST に一時的に
風向・風速西南西 10m/s 瞬間風速 15m/s
15日2時 CEST ~ 15日8時 CEST に一時的に
視程4000m
天気現象雨霧雨
全天の4割程度の雲 雲底高度 210m
全天の8割程度の雲 雲底高度 300m
15日11時 CEST ~ 15日20時 CEST に一時的に
風向・風速西南西 13m/s 瞬間風速 18m/s
TAF ENBO 1418/1518 24018KT 9999 FEW012 BKN030
TEMPO 1419/1509 24020G30KT
TEMPO 1424/1506 4000 RADZ SCT007 BKN010
TEMPO 1509/1518 24025G35KT